createdAt,value
2023-01-10T00:02:27.093Z,7.10
2023-01-10T00:17:29.560Z,7.20
2023-01-10T00:32:32.094Z,7.30
2023-01-10T00:47:34.623Z,7.20
2023-01-10T01:02:37.331Z,7.20
2023-01-10T01:17:39.802Z,7.20
2023-01-10T01:32:42.607Z,7.10
2023-01-10T01:47:51.062Z,7.20
2023-01-10T02:03:02.558Z,7.30
2023-01-10T02:18:06.128Z,7.00
2023-01-10T02:33:11.738Z,7.10
2023-01-10T02:48:15.895Z,7.10
2023-01-10T03:03:50.088Z,7.20
2023-01-10T03:18:57.830Z,6.90
2023-01-10T03:34:00.525Z,7.10
2023-01-10T03:49:05.435Z,7.00
2023-01-10T04:04:07.913Z,6.80
2023-01-10T04:19:10.385Z,6.70
2023-01-10T04:34:12.868Z,6.80
2023-01-10T04:49:15.377Z,6.90
2023-01-10T05:04:20.674Z,6.90
2023-01-10T05:19:23.447Z,6.70
2023-01-10T05:34:26.164Z,6.70
2023-01-10T05:49:28.654Z,6.60
2023-01-10T06:04:31.363Z,6.60
2023-01-10T06:19:34.103Z,6.70
2023-01-10T06:34:36.562Z,6.30
2023-01-10T06:49:39.224Z,6.30
2023-01-10T07:04:42.066Z,6.50
2023-01-10T07:19:44.565Z,6.40
2023-01-10T07:34:47.219Z,6.30
2023-01-10T07:49:49.776Z,6.20
2023-01-10T08:04:52.473Z,5.90
2023-01-10T08:19:54.886Z,5.90
2023-01-10T08:34:57.639Z,5.80
2023-01-10T08:50:00.276Z,6.00
2023-01-10T09:05:02.660Z,6.00
2023-01-10T09:20:09.804Z,6.10
2023-01-10T09:35:12.129Z,6.20
2023-01-10T09:50:23.479Z,6.50
2023-01-10T10:05:29.092Z,6.80
2023-01-10T10:20:51.654Z,7.10
2023-01-10T10:36:13.736Z,7.30
2023-01-10T10:51:37.416Z,7.50
2023-01-10T11:06:45.816Z,7.70
2023-01-10T11:22:00.578Z,7.90
2023-01-10T11:37:04.746Z,8.40
2023-01-10T11:52:21.358Z,8.40
2023-01-10T12:07:23.808Z,8.70
2023-01-10T12:22:45.955Z,8.90
2023-01-10T12:38:07.478Z,8.70
2023-01-10T12:53:28.298Z,8.70
2023-01-10T13:08:34.599Z,8.60
2023-01-10T13:23:50.047Z,8.40
2023-01-10T13:38:55.689Z,8.50
2023-01-10T13:54:03.372Z,8.50
2023-01-10T14:09:28.702Z,8.30
2023-01-10T14:24:42.008Z,8.40
2023-01-10T14:39:44.913Z,8.40
2023-01-10T14:54:55.573Z,8.20
2023-01-10T15:10:02.765Z,8.00
2023-01-10T15:25:07.953Z,7.80
2023-01-10T15:40:22.363Z,7.40
2023-01-10T15:55:50.133Z,7.40
2023-01-10T16:10:58.057Z,7.50
2023-01-10T16:26:03.653Z,7.60
2023-01-10T16:41:27.943Z,7.60
2023-01-10T16:56:30.619Z,7.50
2023-01-10T17:11:37.725Z,7.70
2023-01-10T17:26:40.183Z,7.70
2023-01-10T17:41:42.877Z,7.70
2023-01-10T17:56:45.345Z,7.70
2023-01-10T18:11:47.973Z,7.80
2023-01-10T18:26:50.640Z,7.80
2023-01-10T18:41:53.075Z,8.20
2023-01-10T18:56:56.477Z,8.10
2023-01-10T19:11:59.287Z,8.30
2023-01-10T19:27:01.729Z,8.30
2023-01-10T19:42:04.371Z,8.40
2023-01-10T19:57:08.214Z,8.40
2023-01-10T20:12:13.214Z,8.50
2023-01-10T20:27:17.686Z,8.60
2023-01-10T20:42:20.309Z,8.50
2023-01-10T20:57:22.776Z,8.90
2023-01-10T21:12:27.872Z,8.80
2023-01-10T21:27:31.254Z,9.10
2023-01-10T21:42:38.259Z,9.00
2023-01-10T21:57:40.738Z,9.10
2023-01-10T22:12:43.243Z,9.10
2023-01-10T22:27:45.717Z,9.20
2023-01-10T22:42:52.387Z,9.20
2023-01-10T22:57:54.936Z,9.50
2023-01-10T23:12:59.562Z,9.50
2023-01-10T23:28:01.933Z,9.60
2023-01-10T23:43:04.508Z,9.50
2023-01-10T23:58:06.887Z,9.60
